createdAt,value
2022-11-28T00:00:52.256Z,84.51
2022-11-28T00:11:08.153Z,83.61
2022-11-28T00:21:13.301Z,84.90
2022-11-28T00:31:18.987Z,84.03
2022-11-28T00:41:31.585Z,84.15
2022-11-28T00:51:34.960Z,84.88
2022-11-28T01:01:43.914Z,83.64
2022-11-28T01:11:49.151Z,84.00
2022-11-28T01:21:51.377Z,84.48
2022-11-28T01:31:53.791Z,85.10
2022-11-28T01:41:56.022Z,85.39
2022-11-28T01:52:03.222Z,84.07
2022-11-28T02:02:09.786Z,82.89
2022-11-28T02:12:40.501Z,83.81
2022-11-28T02:22:54.821Z,83.70
2022-11-28T02:33:15.631Z,83.68
2022-11-28T02:43:20.822Z,83.80
2022-11-28T02:53:27.347Z,83.67
2022-11-28T03:03:38.016Z,83.96
2022-11-28T03:14:01.822Z,82.71
2022-11-28T03:24:15.299Z,83.93
2022-11-28T03:34:21.057Z,83.31
2022-11-28T03:44:28.748Z,83.53
2022-11-28T03:54:47.416Z,83.22
2022-11-28T04:05:03.508Z,82.67
2022-11-28T04:15:14.847Z,82.37
2022-11-28T04:25:22.151Z,83.31
2022-11-28T04:35:32.859Z,82.70
2022-11-28T04:45:44.255Z,82.34
2022-11-28T04:55:51.586Z,82.95
2022-11-28T05:05:54.223Z,83.39
2022-11-28T05:16:00.607Z,84.25
2022-11-28T05:26:15.345Z,83.88
2022-11-28T05:36:18.069Z,83.95
2022-11-28T05:46:20.951Z,84.14
2022-11-28T05:56:23.531Z,82.79
2022-11-28T06:06:28.322Z,83.99
2022-11-28T06:16:31.503Z,83.52
2022-11-28T06:26:33.784Z,82.94
2022-11-28T06:36:35.996Z,83.35
2022-11-28T06:46:38.233Z,83.40
2022-11-28T06:56:42.475Z,84.56
2022-11-28T07:06:45.028Z,85.12
2022-11-28T07:16:49.338Z,84.84
2022-11-28T07:26:51.661Z,84.68
2022-11-28T07:36:53.839Z,84.72
2022-11-28T07:46:56.087Z,84.47
2022-11-28T07:57:12.716Z,83.91
2022-11-28T08:07:15.689Z,83.68
2022-11-28T08:17:17.981Z,84.78
2022-11-28T08:27:20.206Z,85.30
2022-11-28T08:37:22.378Z,84.05
2022-11-28T08:47:24.667Z,82.88
2022-11-28T08:57:26.839Z,81.93
2022-11-28T09:07:29.129Z,81.87
2022-11-28T09:17:31.303Z,83.64
2022-11-28T09:27:33.547Z,82.74
2022-11-28T09:37:35.699Z,80.54
2022-11-28T09:47:40.887Z,80.93
2022-11-28T09:57:47.493Z,77.03
2022-11-28T10:08:14.118Z,80.31
2022-11-28T10:18:33.739Z,78.89
2022-11-28T10:28:39.171Z,77.98
2022-11-28T10:38:41.355Z,78.28
2022-11-28T10:49:10.515Z,75.69
2022-11-28T10:59:37.158Z,75.76
2022-11-28T11:09:39.490Z,75.26
2022-11-28T11:19:41.985Z,68.61
2022-11-28T11:29:45.382Z,69.60
2022-11-28T11:39:53.429Z,62.68
2022-11-28T11:50:05.071Z,64.78
2022-11-28T12:00:14.295Z,61.71
2022-11-28T12:10:21.343Z,63.14
2022-11-28T12:20:35.452Z,65.11
2022-11-28T12:31:04.027Z,67.39
2022-11-28T12:41:18.308Z,65.52
2022-11-28T12:51:26.450Z,68.73
2022-11-28T13:01:54.923Z,67.95
2022-11-28T13:12:00.197Z,69.25
2022-11-28T13:22:15.958Z,69.92
2022-11-28T13:32:28.637Z,71.11
2022-11-28T13:43:06.992Z,72.24
2022-11-28T13:53:10.327Z,73.56
2022-11-28T14:03:20.836Z,74.67
2022-11-28T14:13:29.849Z,75.69
2022-11-28T14:23:47.404Z,76.01
2022-11-28T14:33:57.741Z,76.32
2022-11-28T14:44:37.564Z,76.87
2022-11-28T14:54:43.650Z,77.08
2022-11-28T15:05:01.509Z,77.26
2022-11-28T15:15:08.093Z,77.88
2022-11-28T15:25:19.370Z,78.19
2022-11-28T15:35:23.103Z,78.55
2022-11-28T15:45:29.082Z,78.56
2022-11-28T15:55:33.487Z,78.84
2022-11-28T16:05:35.673Z,78.93
2022-11-28T16:15:38.543Z,79.42
2022-11-28T16:25:40.730Z,79.85
2022-11-28T16:35:42.957Z,79.72
2022-11-28T16:45:45.197Z,79.90
2022-11-28T16:55:47.552Z,80.32
2022-11-28T17:05:49.767Z,80.03
2022-11-28T17:15:52.961Z,79.88
2022-11-28T17:25:55.247Z,80.88
2022-11-28T17:35:59.205Z,81.18
2022-11-28T17:46:01.427Z,81.16
2022-11-28T17:56:03.749Z,81.00
2022-11-28T18:06:06.855Z,80.45
2022-11-28T18:16:11.479Z,80.85
2022-11-28T18:26:16.096Z,81.01
2022-11-28T18:36:24.102Z,81.18
2022-11-28T18:46:27.244Z,80.59
2022-11-28T18:56:30.399Z,80.88
2022-11-28T19:06:34.395Z,81.69
2022-11-28T19:16:37.858Z,81.42
2022-11-28T19:26:40.396Z,81.75
2022-11-28T19:36:45.764Z,82.99
2022-11-28T19:46:48.294Z,82.63
2022-11-28T19:56:51.394Z,82.89
2022-11-28T20:06:53.706Z,82.62
2022-11-28T20:16:56.120Z,83.39
2022-11-28T20:26:58.459Z,82.43
2022-11-28T20:37:02.071Z,82.31
2022-11-28T20:47:04.495Z,82.32
2022-11-28T20:57:21.505Z,82.07
2022-11-28T21:07:26.800Z,82.46
2022-11-28T21:17:29.023Z,82.13
2022-11-28T21:27:31.191Z,81.73
2022-11-28T21:40:11.156Z,81.87
2022-11-28T21:50:14.175Z,81.36
2022-11-28T22:00:38.606Z,81.75
2022-11-28T22:10:39.273Z,81.17
2022-11-28T22:20:43.637Z,81.69
2022-11-28T22:30:46.769Z,81.39
2022-11-28T22:40:48.960Z,81.43
2022-11-28T22:50:51.311Z,81.19
2022-11-28T23:00:53.484Z,81.35
2022-11-28T23:10:55.694Z,82.02
2022-11-28T23:20:57.952Z,81.93
2022-11-28T23:31:15.780Z,81.46
2022-11-28T23:41:18.741Z,81.31
2022-11-28T23:51:23.498Z,81.11
